SDM6882 UIII-UNKL
Flight info
| Callsign | SDM6882 |
|---|---|
| Flight time | N/A |
| Altitude | 32000 |
| Route | BOGRA4D BOGRA A815 TUTEK A91 SUKOR W176 AKIRO/K0759F380 W176 TISBU/K0587F240 A311 LALOM LALOM2S |
| Aircraft | SU95/M-SDE3GILORVW/S |
Departure
| Time | 2026-05-08 13:55 |
|---|---|
| Airport | Irkutsk International Airport (UIII) |
Arrival
| Time | N/A |
|---|---|
| Airport | Krasnoyarsk International Airport (UNKL) |
| Time | Latitude | Longitude | Altitude | Speed | Heading |
|---|---|---|---|---|---|
| 2026-05-08 13:12 | 52.27112 | 104.36788 | 1626 ft | 0 kts | 199° |
| 2026-05-08 13:24 | 52.27125 | 104.36795 | 1626 ft | 0 kts | 199° |
| 2026-05-08 13:25 | 52.27117 | 104.36791 | 1626 ft | 0 kts | 199° |
| 2026-05-08 13:48 | 52.27104 | 104.36783 | 1629 ft | 6 kts | 199° |
| 2026-05-08 13:48 | 52.27068 | 104.36789 | 1626 ft | 5 kts | 129° |
| 2026-05-08 13:48 | 52.27052 | 104.36851 | 1629 ft | 7 kts | 104° |
| 2026-05-08 13:48 | 52.27034 | 104.36934 | 1626 ft | 9 kts | 108° |
| 2026-05-08 13:49 | 52.27018 | 104.37016 | 1627 ft | 0 kts | 108° |
| 2026-05-08 13:50 | 52.27012 | 104.37043 | 1629 ft | 8 kts | 108° |
| 2026-05-08 13:50 | 52.26990 | 104.37191 | 1626 ft | 19 kts | 77° |
| 2026-05-08 13:50 | 52.27064 | 104.37367 | 1626 ft | 2 kts | 55° |
| 2026-05-08 13:51 | 52.27111 | 104.37477 | 1627 ft | 24 kts | 55° |
| 2026-05-08 13:51 | 52.27182 | 104.37704 | 1630 ft | 19 kts | 118° |
| 2026-05-08 13:51 | 52.27110 | 104.37978 | 1634 ft | 31 kts | 113° |
| 2026-05-08 13:51 | 52.27013 | 104.38331 | 1636 ft | 37 kts | 115° |
| 2026-05-08 13:52 | 52.26907 | 104.38747 | 1641 ft | 42 kts | 110° |
| 2026-05-08 13:52 | 52.26785 | 104.39193 | 1648 ft | 45 kts | 115° |
| 2026-05-08 13:52 | 52.26659 | 104.39675 | 1660 ft | 48 kts | 113° |
| 2026-05-08 13:52 | 52.26523 | 104.40183 | 1662 ft | 50 kts | 114° |
| 2026-05-08 13:53 | 52.26388 | 104.40698 | 1675 ft | 49 kts | 113° |
| 2026-05-08 13:53 | 52.26253 | 104.41199 | 1677 ft | 36 kts | 114° |
| 2026-05-08 13:53 | 52.26197 | 104.41261 | 1686 ft | 1 kts | 268° |
| 2026-05-08 13:53 | 52.26223 | 104.41243 | 1678 ft | 7 kts | 344° |
| 2026-05-08 13:54 | 52.26260 | 104.41170 | 1674 ft | 10 kts | 293° |
| 2026-05-08 13:54 | 52.26283 | 104.41081 | 1678 ft | 0 kts | 293° |
| 2026-05-08 13:54 | 52.26331 | 104.40900 | 1673 ft | 55 kts | 293° |
| 2026-05-08 13:54 | 52.26602 | 104.39887 | 1657 ft | 136 kts | 294° |
| 2026-05-08 13:55 | 52.27064 | 104.38145 | 1799 ft | 186 kts | 293° |
| 2026-05-08 13:55 | 52.27575 | 104.36205 | 2764 ft | 186 kts | 293° |
| 2026-05-08 13:55 | 52.28633 | 104.32386 | 4825 ft | 182 kts | 297° |
| 2026-05-08 13:56 | 52.29190 | 104.30490 | 5638 ft | 190 kts | 298° |
| 2026-05-08 13:56 | 52.29879 | 104.28603 | 6331 ft | 202 kts | 314° |
| 2026-05-08 13:56 | 52.31019 | 104.27181 | 7009 ft | 215 kts | 335° |
| 2026-05-08 13:56 | 52.32436 | 104.26167 | 7731 ft | 231 kts | 339° |
| 2026-05-08 13:57 | 52.34008 | 104.25251 | 8455 ft | 250 kts | 340° |
| 2026-05-08 13:57 | 52.35711 | 104.24335 | 9279 ft | 263 kts | 341° |
| 2026-05-08 13:57 | 52.37454 | 104.23392 | 10393 ft | 264 kts | 340° |
| 2026-05-08 13:57 | 52.39192 | 104.22410 | 11498 ft | 262 kts | 340° |
| 2026-05-08 13:58 | 52.40958 | 104.21381 | 12152 ft | 279 kts | 340° |
| 2026-05-08 13:58 | 52.42795 | 104.20320 | 12882 ft | 287 kts | 340° |
| 2026-05-08 13:58 | 52.44688 | 104.19235 | 13805 ft | 290 kts | 340° |
| 2026-05-08 13:58 | 52.46609 | 104.18137 | 14588 ft | 295 kts | 340° |
| 2026-05-08 13:59 | 52.48561 | 104.17022 | 15384 ft | 299 kts | 340° |
| 2026-05-08 13:59 | 52.50538 | 104.15890 | 16173 ft | 303 kts | 341° |
| 2026-05-08 13:59 | 52.52545 | 104.14741 | 16957 ft | 307 kts | 341° |
| 2026-05-08 13:59 | 52.54577 | 104.13575 | 17737 ft | 312 kts | 341° |
| 2026-05-08 14:00 | 52.56641 | 104.12390 | 18473 ft | 316 kts | 341° |
| 2026-05-08 14:00 | 52.58703 | 104.11204 | 19143 ft | 320 kts | 341° |
| 2026-05-08 14:00 | 52.60813 | 104.09990 | 19816 ft | 324 kts | 341° |
| 2026-05-08 14:00 | 52.62955 | 104.08756 | 20480 ft | 328 kts | 341° |
| 2026-05-08 14:01 | 52.65120 | 104.07508 | 21143 ft | 332 kts | 341° |
| 2026-05-08 14:01 | 52.67316 | 104.06240 | 21787 ft | 336 kts | 341° |
| 2026-05-08 14:01 | 52.69530 | 104.04960 | 22439 ft | 340 kts | 341° |
| 2026-05-08 14:01 | 52.71773 | 104.03663 | 23060 ft | 344 kts | 341° |
| 2026-05-08 14:02 | 52.74046 | 104.02346 | 23655 ft | 348 kts | 341° |
| 2026-05-08 14:02 | 52.76305 | 104.01036 | 24533 ft | 336 kts | 341° |
| 2026-05-08 14:02 | 52.78443 | 103.99794 | 25768 ft | 315 kts | 341° |
| 2026-05-08 14:02 | 52.80482 | 103.98609 | 26614 ft | 310 kts | 341° |
| 2026-05-08 14:03 | 52.82507 | 103.97431 | 27001 ft | 315 kts | 341° |
| 2026-05-08 14:03 | 52.84581 | 103.96224 | 27437 ft | 317 kts | 341° |
| 2026-05-08 14:03 | 52.86673 | 103.95005 | 27867 ft | 320 kts | 341° |
| 2026-05-08 14:03 | 52.88778 | 103.93777 | 28306 ft | 322 kts | 341° |
| 2026-05-08 14:04 | 52.90900 | 103.92538 | 28710 ft | 325 kts | 341° |
| 2026-05-08 14:04 | 52.93035 | 103.91290 | 29122 ft | 327 kts | 341° |
| 2026-05-08 14:04 | 52.95190 | 103.90029 | 29518 ft | 330 kts | 341° |
| 2026-05-08 14:04 | 52.97361 | 103.88756 | 29899 ft | 332 kts | 341° |
| 2026-05-08 14:05 | 52.99550 | 103.87472 | 30278 ft | 334 kts | 341° |
| 2026-05-08 14:05 | 53.01724 | 103.86236 | 30622 ft | 336 kts | 342° |
| 2026-05-08 14:05 | 53.03943 | 103.84972 | 30912 ft | 339 kts | 341° |
| 2026-05-08 14:05 | 53.06173 | 103.83640 | 31272 ft | 341 kts | 340° |
| 2026-05-08 14:06 | 53.08408 | 103.82295 | 31581 ft | 344 kts | 340° |
| 2026-05-08 14:06 | 53.10668 | 103.80943 | 31884 ft | 346 kts | 340° |
| 2026-05-08 14:06 | 53.12967 | 103.79576 | 31969 ft | 356 kts | 340° |
| 2026-05-08 14:06 | 53.15326 | 103.78113 | 31968 ft | 368 kts | 337° |
| 2026-05-08 14:07 | 53.17681 | 103.76280 | 31967 ft | 380 kts | 335° |
| 2026-05-08 14:07 | 53.20074 | 103.74405 | 31966 ft | 391 kts | 335° |
| 2026-05-08 14:07 | 53.22574 | 103.72459 | 31964 ft | 402 kts | 335° |
| 2026-05-08 14:07 | 53.25146 | 103.70456 | 31967 ft | 414 kts | 335° |
| 2026-05-08 14:08 | 53.27776 | 103.68400 | 31967 ft | 420 kts | 335° |
| 2026-05-08 14:08 | 53.33112 | 103.64214 | 31340 ft | 432 kts | 335° |
| 2026-05-08 14:08 | 53.35855 | 103.62059 | 31584 ft | 437 kts | 334° |
| 2026-05-08 14:09 | 53.38609 | 103.59888 | 31945 ft | 439 kts | 334° |
| 2026-05-08 14:09 | 53.41372 | 103.57708 | 31978 ft | 450 kts | 334° |
| 2026-05-08 14:09 | 53.44239 | 103.55442 | 31973 ft | 461 kts | 334° |
| 2026-05-08 14:09 | 53.47159 | 103.53074 | 31958 ft | 470 kts | 322° |
| 2026-05-08 14:10 | 53.49734 | 103.50440 | 32010 ft | 426 kts | 309° |
| 2026-05-08 14:10 | 53.52210 | 103.47472 | 31425 ft | 448 kts | 318° |
| 2026-05-08 14:10 | 53.54182 | 103.45733 | 33762 ft | 92 kts | 332° |
| 2026-05-08 14:10 | 53.54252 | 103.45827 | 39076 ft | 8 kts | 187° |
| 2026-05-08 14:11 | 53.54279 | 103.45907 | 36315 ft | 5 kts | 42° |
| 2026-05-08 14:11 | 53.55191 | 103.46284 | 29517 ft | 317 kts | 5° |
| 2026-05-08 14:11 | 53.57304 | 103.45731 | 29624 ft | 242 kts | 321° |
| 2026-05-08 14:11 | 53.58463 | 103.43987 | 30162 ft | 222 kts | 324° |
| 2026-05-08 14:12 | 53.59687 | 103.42305 | 29148 ft | 230 kts | 327° |
| 2026-05-08 14:12 | 53.61003 | 103.40712 | 28257 ft | 239 kts | 331° |
| 2026-05-08 14:12 | 53.62472 | 103.39259 | 27446 ft | 244 kts | 334° |